sensor_id;sensor_type;location;lat;lon;timestamp;pressure;altitude;pressure_sealevel;temperature;humidity
58785;BME280;44557;51.862;19.378;2022-12-29T00:00:30;98996.17;;;4.81;78.92
58785;BME280;44557;51.862;19.378;2022-12-29T00:01:52;99003.09;;;4.80;78.91
58785;BME280;44557;51.862;19.378;2022-12-29T00:02:53;99000.32;;;4.80;78.78
58785;BME280;44557;51.862;19.378;2022-12-29T00:03:55;98999.38;;;4.76;79.14
58785;BME280;44557;51.862;19.378;2022-12-29T00:04:57;98996.48;;;4.74;78.96
58785;BME280;44557;51.862;19.378;2022-12-29T00:05:58;98996.39;;;4.74;78.91
58785;BME280;44557;51.862;19.378;2022-12-29T00:07:00;99000.87;;;4.76;79.09
58785;BME280;44557;51.862;19.378;2022-12-29T00:08:01;99002.24;;;4.71;78.93
58785;BME280;44557;51.862;19.378;2022-12-29T00:09:03;99004.32;;;4.75;79.08
58785;BME280;44557;51.862;19.378;2022-12-29T00:10:05;99010.30;;;4.76;78.87
58785;BME280;44557;51.862;19.378;2022-12-29T00:11:10;99007.48;;;4.79;78.84
58785;BME280;44557;51.862;19.378;2022-12-29T00:12:11;99009.34;;;4.81;79.01
58785;BME280;44557;51.862;19.378;2022-12-29T00:13:13;99003.90;;;4.76;79.03
58785;BME280;44557;51.862;19.378;2022-12-29T00:14:33;99004.52;;;4.76;78.92
58785;BME280;44557;51.862;19.378;2022-12-29T00:15:53;99011.42;;;4.77;78.96
58785;BME280;44557;51.862;19.378;2022-12-29T00:16:55;99004.89;;;4.76;78.85
58785;BME280;44557;51.862;19.378;2022-12-29T00:17:56;99004.69;;;4.78;78.95
58785;BME280;44557;51.862;19.378;2022-12-29T00:18:58;99002.79;;;4.77;78.72
58785;BME280;44557;51.862;19.378;2022-12-29T00:20:00;99002.79;;;4.79;78.79
58785;BME280;44557;51.862;19.378;2022-12-29T00:21:22;99008.64;;;4.81;78.72
58785;BME280;44557;51.862;19.378;2022-12-29T00:22:42;99002.91;;;4.79;78.55
58785;BME280;44557;51.862;19.378;2022-12-29T00:24:02;99003.98;;;4.78;78.60
58785;BME280;44557;51.862;19.378;2022-12-29T00:25:17;99005.29;;;4.76;78.76
58785;BME280;44557;51.862;19.378;2022-12-29T00:26:37;99000.02;;;4.75;78.72
58785;BME280;44557;51.862;19.378;2022-12-29T00:27:57;99000.95;;;4.77;78.86
58785;BME280;44557;51.862;19.378;2022-12-29T00:29:17;99001.23;;;4.74;78.77
58785;BME280;44557;51.862;19.378;2022-12-29T00:30:37;98999.52;;;4.71;78.95
58785;BME280;44557;51.862;19.378;2022-12-29T00:31:58;98997.19;;;4.73;78.95
58785;BME280;44557;51.862;19.378;2022-12-29T00:33:21;98992.80;;;4.74;78.90
58785;BME280;44557;51.862;19.378;2022-12-29T00:34:41;98995.96;;;4.72;79.08
58785;BME280;44557;51.862;19.378;2022-12-29T00:36:06;98997.73;;;4.68;79.09
58785;BME280;44557;51.862;19.378;2022-12-29T00:37:09;98995.54;;;4.68;78.99
58785;BME280;44557;51.862;19.378;2022-12-29T00:38:11;98995.16;;;4.70;78.94
58785;BME280;44557;51.862;19.378;2022-12-29T00:39:32;98988.27;;;4.66;78.81
58785;BME280;44557;51.862;19.378;2022-12-29T00:40:52;98989.16;;;4.70;78.81
58785;BME280;44557;51.862;19.378;2022-12-29T00:42:13;98985.30;;;4.71;78.68
58785;BME280;44557;51.862;19.378;2022-12-29T00:43:40;98981.45;;;4.70;78.66
58785;BME280;44557;51.862;19.378;2022-12-29T00:45:00;98982.44;;;4.70;78.48
58785;BME280;44557;51.862;19.378;2022-12-29T00:46:02;98980.95;;;4.71;78.52
58785;BME280;44557;51.862;19.378;2022-12-29T00:47:03;98976.42;;;4.71;78.40
58785;BME280;44557;51.862;19.378;2022-12-29T00:48:05;98973.55;;;4.70;78.45
58785;BME280;44557;51.862;19.378;2022-12-29T00:49:08;98972.35;;;4.74;78.55
58785;BME280;44557;51.862;19.378;2022-12-29T00:50:29;98970.16;;;4.73;78.55
58785;BME280;44557;51.862;19.378;2022-12-29T00:51:30;98972.02;;;4.73;78.40
58785;BME280;44557;51.862;19.378;2022-12-29T00:52:32;98970.61;;;4.71;78.33
58785;BME280;44557;51.862;19.378;2022-12-29T00:53:33;98977.86;;;4.68;78.51
58785;BME280;44557;51.862;19.378;2022-12-29T00:54:37;98974.08;;;4.72;78.44
58785;BME280;44557;51.862;19.378;2022-12-29T00:55:39;98971.64;;;4.72;78.34
58785;BME280;44557;51.862;19.378;2022-12-29T00:56:40;98970.95;;;4.74;78.36
58785;BME280;44557;51.862;19.378;2022-12-29T00:57:42;98976.01;;;4.75;78.41
58785;BME280;44557;51.862;19.378;2022-12-29T00:58:43;98976.82;;;4.79;78.15
58785;BME280;44557;51.862;19.378;2022-12-29T00:59:45;98977.93;;;4.78;78.23
58785;BME280;44557;51.862;19.378;2022-12-29T01:00:46;98974.47;;;4.75;78.38
58785;BME280;44557;51.862;19.378;2022-12-29T01:01:48;98973.42;;;4.78;78.45
58785;BME280;44557;51.862;19.378;2022-12-29T01:02:49;98969.73;;;4.77;78.37
58785;BME280;44557;51.862;19.378;2022-12-29T01:03:52;98966.80;;;4.75;78.27
58785;BME280;44557;51.862;19.378;2022-12-29T01:04:53;98966.19;;;4.77;78.13
58785;BME280;44557;51.862;19.378;2022-12-29T01:05:55;98966.40;;;4.79;78.08
58785;BME280;44557;51.862;19.378;2022-12-29T01:06:56;98963.72;;;4.79;78.17
58785;BME280;44557;51.862;19.378;2022-12-29T01:07:58;98960.58;;;4.77;78.19
58785;BME280;44557;51.862;19.378;2022-12-29T01:09:00;98958.41;;;4.74;78.42
58785;BME280;44557;51.862;19.378;2022-12-29T01:10:20;98956.68;;;4.75;78.50
58785;BME280;44557;51.862;19.378;2022-12-29T01:11:21;98960.77;;;4.74;78.66
58785;BME280;44557;51.862;19.378;2022-12-29T01:12:23;98954.41;;;4.73;78.73
58785;BME280;44557;51.862;19.378;2022-12-29T01:13:43;98954.05;;;4.69;78.97
58785;BME280;44557;51.862;19.378;2022-12-29T01:14:45;98958.95;;;4.71;78.97
58785;BME280;44557;51.862;19.378;2022-12-29T01:15:51;98954.77;;;4.68;78.85
58785;BME280;44557;51.862;19.378;2022-12-29T01:16:53;98956.67;;;4.68;79.10
58785;BME280;44557;51.862;19.378;2022-12-29T01:17:55;98958.18;;;4.68;79.10
58785;BME280;44557;51.862;19.378;2022-12-29T01:18:56;98958.40;;;4.66;78.95
58785;BME280;44557;51.862;19.378;2022-12-29T01:19:58;98959.48;;;4.65;79.10
58785;BME280;44557;51.862;19.378;2022-12-29T01:21:01;98959.94;;;4.67;79.12
58785;BME280;44557;51.862;19.378;2022-12-29T01:22:03;98959.39;;;4.68;78.98
58785;BME280;44557;51.862;19.378;2022-12-29T01:23:04;98960.42;;;4.67;79.12
58785;BME280;44557;51.862;19.378;2022-12-29T01:24:06;98957.14;;;4.65;78.98
58785;BME280;44557;51.862;19.378;2022-12-29T01:25:08;98953.66;;;4.69;78.72
58785;BME280;44557;51.862;19.378;2022-12-29T01:26:15;98951.15;;;4.69;78.55
58785;BME280;44557;51.862;19.378;2022-12-29T01:27:16;98951.02;;;4.69;78.83
58785;BME280;44557;51.862;19.378;2022-12-29T01:28:18;98952.90;;;4.73;78.85
58785;BME280;44557;51.862;19.378;2022-12-29T01:29:20;98951.80;;;4.71;78.77
58785;BME280;44557;51.862;19.378;2022-12-29T01:30:21;98952.13;;;4.73;78.64
58785;BME280;44557;51.862;19.378;2022-12-29T01:31:23;98950.04;;;4.75;78.36
58785;BME280;44557;51.862;19.378;2022-12-29T01:32:24;98948.11;;;4.74;78.37
58785;BME280;44557;51.862;19.378;2022-12-29T01:33:26;98944.65;;;4.75;78.44
58785;BME280;44557;51.862;19.378;2022-12-29T01:34:27;98944.04;;;4.73;78.56
58785;BME280;44557;51.862;19.378;2022-12-29T01:35:29;98944.99;;;4.74;78.63
58785;BME280;44557;51.862;19.378;2022-12-29T01:36:32;98943.79;;;4.74;78.57
58785;BME280;44557;51.862;19.378;2022-12-29T01:37:34;98941.56;;;4.74;78.42
58785;BME280;44557;51.862;19.378;2022-12-29T01:38:36;98939.26;;;4.76;78.50
58785;BME280;44557;51.862;19.378;2022-12-29T01:39:38;98941.73;;;4.77;78.43
58785;BME280;44557;51.862;19.378;2022-12-29T01:40:44;98938.62;;;4.80;78.23
58785;BME280;44557;51.862;19.378;2022-12-29T01:41:46;98939.84;;;4.80;78.22
58785;BME280;44557;51.862;19.378;2022-12-29T01:42:47;98939.42;;;4.79;78.31
58785;BME280;44557;51.862;19.378;2022-12-29T01:43:55;98942.54;;;4.79;78.41
58785;BME280;44557;51.862;19.378;2022-12-29T01:45:17;98942.14;;;4.79;78.38
58785;BME280;44557;51.862;19.378;2022-12-29T01:49:10;98940.71;;;4.84;78.01
58785;BME280;44557;51.862;19.378;2022-12-29T01:51:27;98926.77;;;4.82;77.93
58785;BME280;44557;51.862;19.378;2022-12-29T01:52:32;98916.73;;;4.83;78.02
58785;BME280;44557;51.862;19.378;2022-12-29T01:53:35;98906.59;;;4.81;77.88
58785;BME280;44557;51.862;19.378;2022-12-29T01:54:44;98901.29;;;4.77;78.05
58785;BME280;44557;51.862;19.378;2022-12-29T01:55:53;98894.30;;;4.80;78.21
58785;BME280;44557;51.862;19.378;2022-12-29T01:56:59;98890.25;;;4.83;78.10
58785;BME280;44557;51.862;19.378;2022-12-29T01:58:04;98897.33;;;4.81;78.38
58785;BME280;44557;51.862;19.378;2022-12-29T01:59:12;98911.34;;;4.82;78.52
58785;BME280;44557;51.862;19.378;2022-12-29T02:00:16;98904.11;;;4.80;78.45
58785;BME280;44557;51.862;19.378;2022-12-29T02:01:19;98884.02;;;4.80;78.45
58785;BME280;44557;51.862;19.378;2022-12-29T02:02:22;98886.10;;;4.80;78.38
58785;BME280;44557;51.862;19.378;2022-12-29T02:03:27;98888.20;;;4.79;78.38
58785;BME280;44557;51.862;19.378;2022-12-29T02:04:32;98903.86;;;4.76;78.75
58785;BME280;44557;51.862;19.378;2022-12-29T02:05:54;98909.63;;;4.76;78.67
58785;BME280;44557;51.862;19.378;2022-12-29T02:07:03;98916.02;;;4.76;78.70
58785;BME280;44557;51.862;19.378;2022-12-29T02:08:08;98913.22;;;4.76;78.52
58785;BME280;44557;51.862;19.378;2022-12-29T02:09:10;98916.64;;;4.79;78.57
58785;BME280;44557;51.862;19.378;2022-12-29T02:10:12;98915.15;;;4.75;78.23
58785;BME280;44557;51.862;19.378;2022-12-29T02:11:15;98921.21;;;4.77;78.41
58785;BME280;44557;51.862;19.378;2022-12-29T02:12:20;98922.47;;;4.75;78.30
58785;BME280;44557;51.862;19.378;2022-12-29T02:13:26;98914.52;;;4.75;78.35
58785;BME280;44557;51.862;19.378;2022-12-29T02:14:29;98904.52;;;4.77;78.25
58785;BME280;44557;51.862;19.378;2022-12-29T02:26:44;98890.89;;;4.75;78.04
58785;BME280;44557;51.862;19.378;2022-12-29T02:29:42;98881.55;;;4.74;78.12
58785;BME280;44557;51.862;19.378;2022-12-29T02:34:06;98875.63;;;4.74;77.92
58785;BME280;44557;51.862;19.378;2022-12-29T02:35:34;98871.63;;;4.72;78.03
58785;BME280;44557;51.862;19.378;2022-12-29T02:36:47;98866.29;;;4.73;78.17
58785;BME280;44557;51.862;19.378;2022-12-29T02:38:13;98875.02;;;4.76;77.95
58785;BME280;44557;51.862;19.378;2022-12-29T02:39:41;98878.88;;;4.78;77.76
58785;BME280;44557;51.862;19.378;2022-12-29T02:41:05;98881.29;;;4.80;77.58
58785;BME280;44557;51.862;19.378;2022-12-29T02:42:35;98875.27;;;4.76;77.74
58785;BME280;44557;51.862;19.378;2022-12-29T02:43:44;98872.05;;;4.77;77.80
58785;BME280;44557;51.862;19.378;2022-12-29T02:47:00;98873.88;;;4.80;77.65
58785;BME280;44557;51.862;19.378;2022-12-29T02:49:11;98874.23;;;4.79;77.65
58785;BME280;44557;51.862;19.378;2022-12-29T02:50:20;98872.33;;;4.80;77.70
58785;BME280;44557;51.862;19.378;2022-12-29T02:51:29;98869.06;;;4.79;77.73
58785;BME280;44557;51.862;19.378;2022-12-29T02:52:40;98869.80;;;4.79;77.56
58785;BME280;44557;51.862;19.378;2022-12-29T02:53:44;98866.39;;;4.78;77.35
58785;BME280;44557;51.862;19.378;2022-12-29T02:55:05;98861.47;;;4.78;77.63
58785;BME280;44557;51.862;19.378;2022-12-29T02:56:08;98860.55;;;4.82;77.37
58785;BME280;44557;51.862;19.378;2022-12-29T02:57:26;98854.23;;;4.81;77.43
58785;BME280;44557;51.862;19.378;2022-12-29T02:58:28;98854.90;;;4.79;77.51
58785;BME280;44557;51.862;19.378;2022-12-29T02:59:30;98852.79;;;4.79;77.57
58785;BME280;44557;51.862;19.378;2022-12-29T03:00:32;98856.15;;;4.81;77.44
58785;BME280;44557;51.862;19.378;2022-12-29T03:03:29;98846.14;;;4.84;77.41
58785;BME280;44557;51.862;19.378;2022-12-29T03:07:24;98847.07;;;4.82;77.25
58785;BME280;44557;51.862;19.378;2022-12-29T03:10:07;98840.30;;;4.80;77.26
58785;BME280;44557;51.862;19.378;2022-12-29T03:11:13;98839.89;;;4.83;77.17
58785;BME280;44557;51.862;19.378;2022-12-29T03:15:05;98835.39;;;4.83;77.01
58785;BME280;44557;51.862;19.378;2022-12-29T03:16:48;98845.66;;;4.82;77.13
58785;BME280;44557;51.862;19.378;2022-12-29T03:17:57;98841.42;;;4.83;77.18
58785;BME280;44557;51.862;19.378;2022-12-29T03:20:21;98842.48;;;4.86;77.16
58785;BME280;44557;51.862;19.378;2022-12-29T03:21:41;98836.29;;;4.86;76.97
58785;BME280;44557;51.862;19.378;2022-12-29T03:23:03;98846.36;;;4.87;76.86
58785;BME280;44557;51.862;19.378;2022-12-29T03:24:06;98846.37;;;4.87;76.73
58785;BME280;44557;51.862;19.378;2022-12-29T03:26:14;98846.05;;;4.81;77.14
58785;BME280;44557;51.862;19.378;2022-12-29T03:27:21;98851.28;;;4.85;76.92
58785;BME280;44557;51.862;19.378;2022-12-29T03:28:27;98852.40;;;4.82;77.04
58785;BME280;44557;51.862;19.378;2022-12-29T03:29:34;98851.09;;;4.86;76.86
58785;BME280;44557;51.862;19.378;2022-12-29T03:30:38;98857.45;;;4.84;76.97
58785;BME280;44557;51.862;19.378;2022-12-29T03:31:42;98848.70;;;4.87;76.91
58785;BME280;44557;51.862;19.378;2022-12-29T03:32:49;98851.24;;;4.88;76.69
58785;BME280;44557;51.862;19.378;2022-12-29T03:33:53;98847.23;;;4.87;76.81
58785;BME280;44557;51.862;19.378;2022-12-29T03:34:56;98843.53;;;4.86;76.83
58785;BME280;44557;51.862;19.378;2022-12-29T03:36:03;98842.88;;;4.85;76.70
58785;BME280;44557;51.862;19.378;2022-12-29T03:37:10;98840.30;;;4.87;76.67
58785;BME280;44557;51.862;19.378;2022-12-29T03:38:19;98840.59;;;4.90;76.53
58785;BME280;44557;51.862;19.378;2022-12-29T03:39:24;98833.20;;;4.92;76.39
58785;BME280;44557;51.862;19.378;2022-12-29T03:40:27;98837.67;;;4.92;76.33
58785;BME280;44557;51.862;19.378;2022-12-29T03:41:31;98831.30;;;4.92;76.38
58785;BME280;44557;51.862;19.378;2022-12-29T03:42:35;98833.27;;;4.90;76.43
58785;BME280;44557;51.862;19.378;2022-12-29T03:43:38;98832.63;;;4.86;76.62
58785;BME280;44557;51.862;19.378;2022-12-29T03:44:41;98831.15;;;4.87;76.58
58785;BME280;44557;51.862;19.378;2022-12-29T03:45:44;98822.58;;;4.85;76.47
58785;BME280;44557;51.862;19.378;2022-12-29T03:46:46;98823.79;;;4.86;76.49
58785;BME280;44557;51.862;19.378;2022-12-29T03:47:47;98822.23;;;4.86;76.68
58785;BME280;44557;51.862;19.378;2022-12-29T03:48:49;98822.06;;;4.87;76.61
58785;BME280;44557;51.862;19.378;2022-12-29T03:49:51;98820.48;;;4.87;76.60
58785;BME280;44557;51.862;19.378;2022-12-29T03:50:53;98821.68;;;4.88;76.54
58785;BME280;44557;51.862;19.378;2022-12-29T03:51:54;98820.95;;;4.90;76.55
58785;BME280;44557;51.862;19.378;2022-12-29T03:52:56;98819.23;;;4.88;76.64
58785;BME280;44557;51.862;19.378;2022-12-29T03:53:57;98821.45;;;4.93;76.51
58785;BME280;44557;51.862;19.378;2022-12-29T03:54:59;98816.75;;;4.96;76.36
58785;BME280;44557;51.862;19.378;2022-12-29T03:56:00;98814.67;;;4.93;76.25
58785;BME280;44557;51.862;19.378;2022-12-29T03:57:02;98817.88;;;4.92;76.48
58785;BME280;44557;51.862;19.378;2022-12-29T03:58:04;98817.14;;;4.91;76.27
58785;BME280;44557;51.862;19.378;2022-12-29T03:59:05;98813.02;;;4.90;76.49
58785;BME280;44557;51.862;19.378;2022-12-29T04:00:07;98810.07;;;4.93;76.47
58785;BME280;44557;51.862;19.378;2022-12-29T04:01:09;98810.66;;;4.90;76.52
58785;BME280;44557;51.862;19.378;2022-12-29T04:02:11;98803.38;;;4.88;76.77
58785;BME280;44557;51.862;19.378;2022-12-29T04:03:12;98800.77;;;4.89;76.62
58785;BME280;44557;51.862;19.378;2022-12-29T04:04:14;98799.42;;;4.92;76.53
58785;BME280;44557;51.862;19.378;2022-12-29T04:05:15;98797.81;;;4.94;76.56
58785;BME280;44557;51.862;19.378;2022-12-29T04:06:17;98794.39;;;4.94;76.54
58785;BME280;44557;51.862;19.378;2022-12-29T04:07:18;98792.70;;;4.95;76.53
58785;BME280;44557;51.862;19.378;2022-12-29T04:08:20;98797.65;;;4.89;76.58
58785;BME280;44557;51.862;19.378;2022-12-29T04:09:21;98797.79;;;4.92;76.50
58785;BME280;44557;51.862;19.378;2022-12-29T04:10:23;98797.44;;;4.93;76.56
58785;BME280;44557;51.862;19.378;2022-12-29T04:11:25;98794.89;;;4.95;76.43
58785;BME280;44557;51.862;19.378;2022-12-29T04:12:26;98794.73;;;4.95;76.61
58785;BME280;44557;51.862;19.378;2022-12-29T04:13:28;98798.71;;;4.95;76.48
58785;BME280;44557;51.862;19.378;2022-12-29T04:14:29;98794.50;;;4.97;76.28
58785;BME280;44557;51.862;19.378;2022-12-29T04:15:31;98793.54;;;4.98;76.16
58785;BME280;44557;51.862;19.378;2022-12-29T04:16:33;98792.77;;;5.00;76.19
58785;BME280;44557;51.862;19.378;2022-12-29T04:17:36;98794.09;;;5.00;76.23
58785;BME280;44557;51.862;19.378;2022-12-29T04:18:38;98794.77;;;5.01;76.18
58785;BME280;44557;51.862;19.378;2022-12-29T04:19:40;98794.91;;;5.01;76.27
58785;BME280;44557;51.862;19.378;2022-12-29T04:20:42;98796.30;;;5.02;76.20
58785;BME280;44557;51.862;19.378;2022-12-29T04:22:01;98789.34;;;5.02;76.29
58785;BME280;44557;51.862;19.378;2022-12-29T04:23:04;98784.73;;;5.02;76.08
58785;BME280;44557;51.862;19.378;2022-12-29T04:24:06;98788.97;;;5.02;76.10
58785;BME280;44557;51.862;19.378;2022-12-29T04:25:08;98787.48;;;5.04;76.07
58785;BME280;44557;51.862;19.378;2022-12-29T04:26:10;98792.23;;;5.03;76.14
58785;BME280;44557;51.862;19.378;2022-12-29T04:27:11;98787.55;;;5.04;76.31
58785;BME280;44557;51.862;19.378;2022-12-29T04:28:14;98785.70;;;5.04;76.01
58785;BME280;44557;51.862;19.378;2022-12-29T04:29:15;98778.73;;;5.02;76.31
58785;BME280;44557;51.862;19.378;2022-12-29T04:30:17;98780.27;;;5.03;76.31
58785;BME280;44557;51.862;19.378;2022-12-29T04:31:18;98777.92;;;5.03;76.29
58785;BME280;44557;51.862;19.378;2022-12-29T04:32:20;98772.85;;;5.05;76.27
58785;BME280;44557;51.862;19.378;2022-12-29T04:33:22;98774.20;;;5.03;76.01
58785;BME280;44557;51.862;19.378;2022-12-29T04:34:23;98780.95;;;5.06;75.89
58785;BME280;44557;51.862;19.378;2022-12-29T04:35:25;98782.83;;;5.06;75.92
58785;BME280;44557;51.862;19.378;2022-12-29T04:36:26;98778.45;;;5.06;75.99
58785;BME280;44557;51.862;19.378;2022-12-29T04:37:28;98775.29;;;5.07;75.95
58785;BME280;44557;51.862;19.378;2022-12-29T04:38:29;98772.36;;;5.06;76.17
58785;BME280;44557;51.862;19.378;2022-12-29T04:39:31;98770.80;;;5.06;76.11
58785;BME280;44557;51.862;19.378;2022-12-29T04:40:34;98769.09;;;5.08;76.04
58785;BME280;44557;51.862;19.378;2022-12-29T04:41:35;98771.04;;;5.08;76.07
58785;BME280;44557;51.862;19.378;2022-12-29T04:42:37;98772.00;;;5.08;75.95
58785;BME280;44557;51.862;19.378;2022-12-29T04:43:39;98771.65;;;5.09;75.87
58785;BME280;44557;51.862;19.378;2022-12-29T04:44:40;98766.87;;;5.07;75.89
58785;BME280;44557;51.862;19.378;2022-12-29T04:45:45;98769.41;;;5.06;75.81
58785;BME280;44557;51.862;19.378;2022-12-29T04:46:47;98769.15;;;5.09;75.85
58785;BME280;44557;51.862;19.378;2022-12-29T04:47:49;98769.56;;;5.08;75.90
58785;BME280;44557;51.862;19.378;2022-12-29T04:48:51;98762.16;;;5.06;76.03
58785;BME280;44557;51.862;19.378;2022-12-29T04:49:52;98766.14;;;5.06;76.16
58785;BME280;44557;51.862;19.378;2022-12-29T04:50:54;98767.52;;;5.06;76.12
58785;BME280;44557;51.862;19.378;2022-12-29T04:51:55;98762.77;;;5.06;76.06
58785;BME280;44557;51.862;19.378;2022-12-29T04:52:57;98766.65;;;5.09;75.82
58785;BME280;44557;51.862;19.378;2022-12-29T04:53:58;98765.23;;;5.09;75.84
58785;BME280;44557;51.862;19.378;2022-12-29T04:55:00;98768.24;;;5.10;75.75
58785;BME280;44557;51.862;19.378;2022-12-29T04:56:01;98764.01;;;5.11;75.77
58785;BME280;44557;51.862;19.378;2022-12-29T04:57:03;98763.67;;;5.13;75.62
58785;BME280;44557;51.862;19.378;2022-12-29T04:58:04;98762.17;;;5.12;75.84
58785;BME280;44557;51.862;19.378;2022-12-29T04:59:06;98767.79;;;5.14;75.64
58785;BME280;44557;51.862;19.378;2022-12-29T05:00:08;98766.85;;;5.15;75.58
58785;BME280;44557;51.862;19.378;2022-12-29T05:01:13;98766.91;;;5.15;75.73
58785;BME280;44557;51.862;19.378;2022-12-29T05:02:15;98763.63;;;5.17;75.40
58785;BME280;44557;51.862;19.378;2022-12-29T05:03:17;98768.21;;;5.22;75.23
58785;BME280;44557;51.862;19.378;2022-12-29T05:04:18;98759.93;;;5.20;75.34
58785;BME280;44557;51.862;19.378;2022-12-29T05:05:20;98760.22;;;5.19;75.24
58785;BME280;44557;51.862;19.378;2022-12-29T05:06:21;98759.14;;;5.19;75.47
58785;BME280;44557;51.862;19.378;2022-12-29T05:07:23;98756.14;;;5.20;75.18
58785;BME280;44557;51.862;19.378;2022-12-29T05:08:26;98752.73;;;5.21;75.19
58785;BME280;44557;51.862;19.378;2022-12-29T05:09:28;98751.22;;;5.20;75.25
58785;BME280;44557;51.862;19.378;2022-12-29T05:10:31;98750.20;;;5.18;75.49
58785;BME280;44557;51.862;19.378;2022-12-29T05:11:32;98749.94;;;5.18;75.38
58785;BME280;44557;51.862;19.378;2022-12-29T05:12:35;98757.16;;;5.21;74.98
58785;BME280;44557;51.862;19.378;2022-12-29T05:13:37;98752.63;;;5.21;75.21
58785;BME280;44557;51.862;19.378;2022-12-29T05:14:39;98754.48;;;5.20;75.43
58785;BME280;44557;51.862;19.378;2022-12-29T05:15:40;98753.00;;;5.20;75.22
58785;BME280;44557;51.862;19.378;2022-12-29T05:16:42;98749.88;;;5.20;75.16
58785;BME280;44557;51.862;19.378;2022-12-29T05:17:43;98748.69;;;5.21;74.94
58785;BME280;44557;51.862;19.378;2022-12-29T05:18:45;98750.23;;;5.17;75.29
58785;BME280;44557;51.862;19.378;2022-12-29T05:19:46;98750.70;;;5.14;75.47
58785;BME280;44557;51.862;19.378;2022-12-29T05:20:47;98754.98;;;5.15;75.28
58785;BME280;44557;51.862;19.378;2022-12-29T05:21:49;98761.92;;;5.17;75.28
58785;BME280;44557;51.862;19.378;2022-12-29T05:22:51;98758.46;;;5.16;75.42
58785;BME280;44557;51.862;19.378;2022-12-29T05:23:53;98756.97;;;5.18;75.29
58785;BME280;44557;51.862;19.378;2022-12-29T05:24:54;98759.22;;;5.19;75.11
58785;BME280;44557;51.862;19.378;2022-12-29T05:25:56;98757.49;;;5.17;75.37
58785;BME280;44557;51.862;19.378;2022-12-29T05:26:58;98755.37;;;5.17;75.20
58785;BME280;44557;51.862;19.378;2022-12-29T05:27:59;98752.48;;;5.19;75.15
58785;BME280;44557;51.862;19.378;2022-12-29T05:29:01;98749.27;;;5.18;75.38
58785;BME280;44557;51.862;19.378;2022-12-29T05:30:03;98751.91;;;5.20;75.16
58785;BME280;44557;51.862;19.378;2022-12-29T05:31:05;98756.27;;;5.20;75.19
58785;BME280;44557;51.862;19.378;2022-12-29T05:32:06;98762.36;;;5.20;75.19
58785;BME280;44557;51.862;19.378;2022-12-29T05:33:08;98764.69;;;5.20;75.11
58785;BME280;44557;51.862;19.378;2022-12-29T05:34:12;98764.23;;;5.22;75.08
58785;BME280;44557;51.862;19.378;2022-12-29T05:35:14;98765.36;;;5.25;75.12
58785;BME280;44557;51.862;19.378;2022-12-29T05:36:15;98758.94;;;5.26;74.85
58785;BME280;44557;51.862;19.378;2022-12-29T05:37:17;98759.77;;;5.26;74.75
58785;BME280;44557;51.862;19.378;2022-12-29T05:38:19;98764.36;;;5.28;74.78
58785;BME280;44557;51.862;19.378;2022-12-29T05:39:21;98768.94;;;5.26;74.83
58785;BME280;44557;51.862;19.378;2022-12-29T05:40:22;98767.29;;;5.28;74.80
58785;BME280;44557;51.862;19.378;2022-12-29T05:41:24;98770.41;;;5.28;74.69
58785;BME280;44557;51.862;19.378;2022-12-29T05:42:25;98766.17;;;5.27;74.49
58785;BME280;44557;51.862;19.378;2022-12-29T05:43:27;98771.05;;;5.27;74.77
58785;BME280;44557;51.862;19.378;2022-12-29T05:44:28;98766.79;;;5.27;74.64
58785;BME280;44557;51.862;19.378;2022-12-29T05:45:30;98767.84;;;5.28;74.66
58785;BME280;44557;51.862;19.378;2022-12-29T05:46:31;98766.27;;;5.28;74.58
58785;BME280;44557;51.862;19.378;2022-12-29T05:47:33;98770.14;;;5.29;74.57
58785;BME280;44557;51.862;19.378;2022-12-29T05:48:35;98766.25;;;5.31;74.64
58785;BME280;44557;51.862;19.378;2022-12-29T05:49:37;98768.70;;;5.32;74.67
58785;BME280;44557;51.862;19.378;2022-12-29T05:50:38;98766.52;;;5.30;74.53
58785;BME280;44557;51.862;19.378;2022-12-29T05:51:40;98765.98;;;5.32;74.32
58785;BME280;44557;51.862;19.378;2022-12-29T05:52:42;98760.46;;;5.33;74.56
58785;BME280;44557;51.862;19.378;2022-12-29T05:53:43;98760.27;;;5.35;74.16
58785;BME280;44557;51.862;19.378;2022-12-29T05:54:44;98759.98;;;5.36;74.25
58785;BME280;44557;51.862;19.378;2022-12-29T05:55:47;98762.48;;;5.34;74.20
58785;BME280;44557;51.862;19.378;2022-12-29T05:56:49;98763.88;;;5.32;74.22
58785;BME280;44557;51.862;19.378;2022-12-29T05:57:50;98762.04;;;5.33;74.40
58785;BME280;44557;51.862;19.378;2022-12-29T05:58:52;98758.86;;;5.35;74.42
58785;BME280;44557;51.862;19.378;2022-12-29T05:59:53;98760.91;;;5.34;74.55
58785;BME280;44557;51.862;19.378;2022-12-29T06:00:55;98758.60;;;5.31;74.18
58785;BME280;44557;51.862;19.378;2022-12-29T06:01:56;98763.71;;;5.34;74.39
58785;BME280;44557;51.862;19.378;2022-12-29T06:02:58;98773.79;;;5.34;74.30
58785;BME280;44557;51.862;19.378;2022-12-29T06:04:00;98769.99;;;5.37;74.09
58785;BME280;44557;51.862;19.378;2022-12-29T06:05:02;98777.90;;;5.37;74.19
58785;BME280;44557;51.862;19.378;2022-12-29T06:06:04;98773.05;;;5.35;74.20
58785;BME280;44557;51.862;19.378;2022-12-29T06:07:05;98774.25;;;5.34;74.01
58785;BME280;44557;51.862;19.378;2022-12-29T06:08:07;98769.52;;;5.36;74.04
58785;BME280;44557;51.862;19.378;2022-12-29T06:09:10;98774.33;;;5.37;73.99
58785;BME280;44557;51.862;19.378;2022-12-29T06:10:12;98777.32;;;5.37;74.05
58785;BME280;44557;51.862;19.378;2022-12-29T06:11:14;98775.10;;;5.37;74.15
58785;BME280;44557;51.862;19.378;2022-12-29T06:12:15;98769.65;;;5.36;74.23
58785;BME280;44557;51.862;19.378;2022-12-29T06:13:17;98770.41;;;5.37;73.84
58785;BME280;44557;51.862;19.378;2022-12-29T06:14:19;98762.02;;;5.40;73.78
58785;BME280;44557;51.862;19.378;2022-12-29T06:15:21;98758.21;;;5.41;73.85
58785;BME280;44557;51.862;19.378;2022-12-29T06:16:23;98757.16;;;5.41;73.82
58785;BME280;44557;51.862;19.378;2022-12-29T06:17:24;98757.77;;;5.41;73.60
58785;BME280;44557;51.862;19.378;2022-12-29T06:18:26;98754.52;;;5.42;73.66